sensor_id;sensor_type;location;lat;lon;timestamp;P1;durP1;ratioP1;P2;durP2;ratioP2
8421;SDS011;4248;48.196;10.924;2023-02-25T00:00:13;8.00;;;4.93;;
8421;SDS011;4248;48.196;10.924;2023-02-25T00:02:43;11.17;;;5.93;;
8421;SDS011;4248;48.196;10.924;2023-02-25T00:05:11;10.25;;;5.40;;
8421;SDS011;4248;48.196;10.924;2023-02-25T00:07:37;8.67;;;5.27;;
8421;SDS011;4248;48.196;10.924;2023-02-25T00:10:04;9.50;;;5.43;;
8421;SDS011;4248;48.196;10.924;2023-02-25T00:12:31;16.60;;;5.40;;
8421;SDS011;4248;48.196;10.924;2023-02-25T00:14:56;8.73;;;5.17;;
8421;SDS011;4248;48.196;10.924;2023-02-25T00:17:22;11.43;;;4.83;;
8421;SDS011;4248;48.196;10.924;2023-02-25T00:19:48;10.93;;;4.40;;
8421;SDS011;4248;48.196;10.924;2023-02-25T00:22:13;6.50;;;3.27;;
8421;SDS011;4248;48.196;10.924;2023-02-25T00:24:39;5.37;;;3.23;;
8421;SDS011;4248;48.196;10.924;2023-02-25T00:27:05;7.27;;;2.87;;
8421;SDS011;4248;48.196;10.924;2023-02-25T00:29:30;5.33;;;2.80;;
8421;SDS011;4248;48.196;10.924;2023-02-25T00:31:57;4.03;;;2.27;;
8421;SDS011;4248;48.196;10.924;2023-02-25T00:34:22;5.57;;;2.37;;
8421;SDS011;4248;48.196;10.924;2023-02-25T00:36:48;5.23;;;2.67;;
8421;SDS011;4248;48.196;10.924;2023-02-25T00:39:14;4.30;;;2.23;;
8421;SDS011;4248;48.196;10.924;2023-02-25T00:41:40;5.67;;;2.90;;
8421;SDS011;4248;48.196;10.924;2023-02-25T00:44:06;3.30;;;2.10;;
8421;SDS011;4248;48.196;10.924;2023-02-25T00:46:32;5.20;;;2.33;;
8421;SDS011;4248;48.196;10.924;2023-02-25T00:48:58;8.50;;;2.77;;
8421;SDS011;4248;48.196;10.924;2023-02-25T00:51:25;7.43;;;3.13;;
8421;SDS011;4248;48.196;10.924;2023-02-25T00:53:53;5.35;;;2.90;;
8421;SDS011;4248;48.196;10.924;2023-02-25T00:56:20;5.63;;;3.10;;
8421;SDS011;4248;48.196;10.924;2023-02-25T00:58:47;6.03;;;3.13;;
8421;SDS011;4248;48.196;10.924;2023-02-25T01:01:27;7.53;;;3.70;;
8421;SDS011;4248;48.196;10.924;2023-02-25T01:03:55;10.27;;;3.33;;
8421;SDS011;4248;48.196;10.924;2023-02-25T01:06:21;5.77;;;2.90;;
8421;SDS011;4248;48.196;10.924;2023-02-25T01:08:48;4.70;;;2.93;;
8421;SDS011;4248;48.196;10.924;2023-02-25T01:13:45;11.03;;;2.97;;
8421;SDS011;4248;48.196;10.924;2023-02-25T01:16:12;8.00;;;2.77;;
8421;SDS011;4248;48.196;10.924;2023-02-25T01:18:40;5.17;;;2.67;;
8421;SDS011;4248;48.196;10.924;2023-02-25T01:21:06;9.63;;;3.70;;
8421;SDS011;4248;48.196;10.924;2023-02-25T01:23:38;5.83;;;2.77;;
8421;SDS011;4248;48.196;10.924;2023-02-25T01:26:03;5.73;;;2.60;;
8421;SDS011;4248;48.196;10.924;2023-02-25T01:28:29;6.20;;;2.40;;
8421;SDS011;4248;48.196;10.924;2023-02-25T01:30:55;4.77;;;2.10;;
8421;SDS011;4248;48.196;10.924;2023-02-25T01:33:20;4.87;;;2.60;;
8421;SDS011;4248;48.196;10.924;2023-02-25T01:35:46;3.67;;;2.43;;
8421;SDS011;4248;48.196;10.924;2023-02-25T01:38:12;3.27;;;2.20;;
8421;SDS011;4248;48.196;10.924;2023-02-25T01:40:37;4.43;;;3.00;;
8421;SDS011;4248;48.196;10.924;2023-02-25T01:43:04;3.57;;;2.20;;
8421;SDS011;4248;48.196;10.924;2023-02-25T01:45:31;5.20;;;2.50;;
8421;SDS011;4248;48.196;10.924;2023-02-25T01:48:02;4.50;;;2.80;;
8421;SDS011;4248;48.196;10.924;2023-02-25T01:50:38;4.57;;;2.50;;
8421;SDS011;4248;48.196;10.924;2023-02-25T01:53:09;3.60;;;2.45;;
8421;SDS011;4248;48.196;10.924;2023-02-25T01:55:37;6.40;;;3.30;;
8421;SDS011;4248;48.196;10.924;2023-02-25T01:58:05;6.60;;;2.90;;
8421;SDS011;4248;48.196;10.924;2023-02-25T02:00:33;5.63;;;2.77;;
8421;SDS011;4248;48.196;10.924;2023-02-25T02:03:00;4.90;;;3.10;;
8421;SDS011;4248;48.196;10.924;2023-02-25T02:05:30;7.40;;;3.27;;
8421;SDS011;4248;48.196;10.924;2023-02-25T02:08:20;6.43;;;2.80;;
8421;SDS011;4248;48.196;10.924;2023-02-25T02:10:47;4.23;;;1.70;;
8421;SDS011;4248;48.196;10.924;2023-02-25T02:13:12;5.43;;;1.50;;
8421;SDS011;4248;48.196;10.924;2023-02-25T02:15:39;3.30;;;1.47;;
8421;SDS011;4248;48.196;10.924;2023-02-25T02:18:11;2.70;;;1.40;;
8421;SDS011;4248;48.196;10.924;2023-02-25T02:28:37;4.47;;;2.10;;
8421;SDS011;4248;48.196;10.924;2023-02-25T02:34:30;6.35;;;2.35;;
8421;SDS011;4248;48.196;10.924;2023-02-25T02:48:12;3.35;;;2.20;;
8421;SDS011;4248;48.196;10.924;2023-02-25T02:50:50;2.97;;;2.30;;
8421;SDS011;4248;48.196;10.924;2023-02-25T02:53:24;5.23;;;2.53;;
8421;SDS011;4248;48.196;10.924;2023-02-25T02:55:55;5.03;;;2.72;;
8421;SDS011;4248;48.196;10.924;2023-02-25T02:58:26;4.93;;;2.90;;
8421;SDS011;4248;48.196;10.924;2023-02-25T03:01:00;3.53;;;2.40;;
8421;SDS011;4248;48.196;10.924;2023-02-25T03:03:31;9.45;;;3.33;;
8421;SDS011;4248;48.196;10.924;2023-02-25T03:06:09;4.97;;;3.70;;
8421;SDS011;4248;48.196;10.924;2023-02-25T03:08:42;5.72;;;3.47;;
8421;SDS011;4248;48.196;10.924;2023-02-25T03:11:13;6.73;;;4.27;;
8421;SDS011;4248;48.196;10.924;2023-02-25T03:13:40;6.40;;;4.00;;
8421;SDS011;4248;48.196;10.924;2023-02-25T03:16:06;6.07;;;4.30;;
8421;SDS011;4248;48.196;10.924;2023-02-25T03:18:38;6.50;;;4.23;;
8421;SDS011;4248;48.196;10.924;2023-02-25T03:21:26;7.30;;;4.60;;
8421;SDS011;4248;48.196;10.924;2023-02-25T03:23:56;8.90;;;4.70;;
8421;SDS011;4248;48.196;10.924;2023-02-25T03:26:27;9.95;;;4.55;;
8421;SDS011;4248;48.196;10.924;2023-02-25T03:28:54;7.67;;;3.93;;
8421;SDS011;4248;48.196;10.924;2023-02-25T03:31:22;8.67;;;4.53;;
8421;SDS011;4248;48.196;10.924;2023-02-25T03:34:02;6.90;;;4.57;;
8421;SDS011;4248;48.196;10.924;2023-02-25T03:36:36;8.07;;;4.55;;
8421;SDS011;4248;48.196;10.924;2023-02-25T03:39:10;6.63;;;4.60;;
8421;SDS011;4248;48.196;10.924;2023-02-25T03:41:40;8.20;;;4.40;;
8421;SDS011;4248;48.196;10.924;2023-02-25T03:44:13;7.27;;;4.00;;
8421;SDS011;4248;48.196;10.924;2023-02-25T03:46:43;6.00;;;4.05;;
8421;SDS011;4248;48.196;10.924;2023-02-25T03:49:11;7.25;;;4.20;;
8421;SDS011;4248;48.196;10.924;2023-02-25T03:51:48;7.97;;;5.00;;
8421;SDS011;4248;48.196;10.924;2023-02-25T03:54:17;8.40;;;4.40;;
8421;SDS011;4248;48.196;10.924;2023-02-25T03:56:43;7.47;;;5.03;;
8421;SDS011;4248;48.196;10.924;2023-02-25T03:59:15;8.73;;;4.88;;
8421;SDS011;4248;48.196;10.924;2023-02-25T04:01:41;7.70;;;4.40;;
8421;SDS011;4248;48.196;10.924;2023-02-25T04:04:10;8.03;;;4.93;;
8421;SDS011;4248;48.196;10.924;2023-02-25T04:06:36;7.47;;;4.90;;
8421;SDS011;4248;48.196;10.924;2023-02-25T04:09:01;13.30;;;5.63;;
8421;SDS011;4248;48.196;10.924;2023-02-25T04:11:28;6.47;;;4.70;;
8421;SDS011;4248;48.196;10.924;2023-02-25T04:13:54;9.17;;;5.53;;
8421;SDS011;4248;48.196;10.924;2023-02-25T04:16:19;9.57;;;5.33;;
8421;SDS011;4248;48.196;10.924;2023-02-25T04:18:45;15.27;;;5.73;;
8421;SDS011;4248;48.196;10.924;2023-02-25T04:21:24;10.27;;;6.17;;
8421;SDS011;4248;48.196;10.924;2023-02-25T04:23:59;9.30;;;5.53;;
8421;SDS011;4248;48.196;10.924;2023-02-25T04:26:24;10.50;;;5.63;;
8421;SDS011;4248;48.196;10.924;2023-02-25T04:28:50;9.80;;;5.60;;
8421;SDS011;4248;48.196;10.924;2023-02-25T04:31:16;10.30;;;6.07;;
8421;SDS011;4248;48.196;10.924;2023-02-25T04:33:42;8.47;;;5.40;;
8421;SDS011;4248;48.196;10.924;2023-02-25T04:39:08;11.80;;;5.80;;
8421;SDS011;4248;48.196;10.924;2023-02-25T04:41:35;10.50;;;6.17;;
8421;SDS011;4248;48.196;10.924;2023-02-25T04:44:01;8.90;;;5.87;;
8421;SDS011;4248;48.196;10.924;2023-02-25T04:46:31;9.35;;;5.72;;
8421;SDS011;4248;48.196;10.924;2023-02-25T04:49:01;9.83;;;5.97;;
8421;SDS011;4248;48.196;10.924;2023-02-25T04:51:27;11.60;;;5.77;;
8421;SDS011;4248;48.196;10.924;2023-02-25T04:53:53;10.13;;;5.87;;
8421;SDS011;4248;48.196;10.924;2023-02-25T04:56:19;8.67;;;5.73;;
8421;SDS011;4248;48.196;10.924;2023-02-25T04:58:44;12.60;;;6.67;;
8421;SDS011;4248;48.196;10.924;2023-02-25T05:01:10;16.90;;;7.03;;
8421;SDS011;4248;48.196;10.924;2023-02-25T05:03:37;13.13;;;6.67;;
8421;SDS011;4248;48.196;10.924;2023-02-25T05:06:03;10.60;;;6.60;;
8421;SDS011;4248;48.196;10.924;2023-02-25T05:08:30;10.27;;;6.07;;
8421;SDS011;4248;48.196;10.924;2023-02-25T05:10:56;17.03;;;7.43;;
8421;SDS011;4248;48.196;10.924;2023-02-25T05:13:21;13.23;;;6.40;;
8421;SDS011;4248;48.196;10.924;2023-02-25T05:15:47;14.63;;;6.83;;
8421;SDS011;4248;48.196;10.924;2023-02-25T05:18:13;12.82;;;7.60;;
8421;SDS011;4248;48.196;10.924;2023-02-25T05:20:40;11.47;;;7.20;;
8421;SDS011;4248;48.196;10.924;2023-02-25T05:23:11;11.93;;;7.70;;
8421;SDS011;4248;48.196;10.924;2023-02-25T05:25:37;13.85;;;7.70;;
8421;SDS011;4248;48.196;10.924;2023-02-25T05:28:07;11.10;;;7.20;;
8421;SDS011;4248;48.196;10.924;2023-02-25T05:30:33;13.30;;;7.40;;
8421;SDS011;4248;48.196;10.924;2023-02-25T05:33:00;10.47;;;6.03;;
8421;SDS011;4248;48.196;10.924;2023-02-25T05:35:26;11.13;;;6.53;;
8421;SDS011;4248;48.196;10.924;2023-02-25T05:37:51;13.07;;;7.50;;
8421;SDS011;4248;48.196;10.924;2023-02-25T05:40:18;14.53;;;6.93;;
8421;SDS011;4248;48.196;10.924;2023-02-25T05:42:44;10.23;;;6.80;;
8421;SDS011;4248;48.196;10.924;2023-02-25T05:45:13;10.57;;;6.45;;
8421;SDS011;4248;48.196;10.924;2023-02-25T05:47:40;10.82;;;7.10;;
8421;SDS011;4248;48.196;10.924;2023-02-25T05:50:06;13.90;;;7.50;;
8421;SDS011;4248;48.196;10.924;2023-02-25T05:52:32;12.23;;;6.43;;
8421;SDS011;4248;48.196;10.924;2023-02-25T05:54:58;12.60;;;7.40;;
8421;SDS011;4248;48.196;10.924;2023-02-25T05:57:24;10.30;;;6.37;;
8421;SDS011;4248;48.196;10.924;2023-02-25T05:59:50;11.10;;;6.90;;
8421;SDS011;4248;48.196;10.924;2023-02-25T06:02:15;10.55;;;6.03;;
8421;SDS011;4248;48.196;10.924;2023-02-25T06:04:41;12.73;;;6.13;;
8421;SDS011;4248;48.196;10.924;2023-02-25T06:07:07;13.90;;;5.60;;
8421;SDS011;4248;48.196;10.924;2023-02-25T06:09:32;13.80;;;7.17;;
8421;SDS011;4248;48.196;10.924;2023-02-25T06:11:58;9.97;;;6.63;;
8421;SDS011;4248;48.196;10.924;2023-02-25T06:14:24;12.60;;;7.40;;
8421;SDS011;4248;48.196;10.924;2023-02-25T06:16:50;13.52;;;6.25;;
8421;SDS011;4248;48.196;10.924;2023-02-25T06:19:20;12.30;;;7.03;;
8421;SDS011;4248;48.196;10.924;2023-02-25T06:21:50;9.73;;;6.83;;
8421;SDS011;4248;48.196;10.924;2023-02-25T06:24:20;16.00;;;6.60;;
8421;SDS011;4248;48.196;10.924;2023-02-25T06:26:46;10.05;;;6.60;;
8421;SDS011;4248;48.196;10.924;2023-02-25T06:29:12;10.70;;;6.33;;
8421;SDS011;4248;48.196;10.924;2023-02-25T06:31:37;9.40;;;6.27;;
8421;SDS011;4248;48.196;10.924;2023-02-25T06:34:04;9.88;;;6.70;;
8421;SDS011;4248;48.196;10.924;2023-02-25T06:36:31;10.30;;;6.10;;
8421;SDS011;4248;48.196;10.924;2023-02-25T06:38:57;14.23;;;6.87;;
8421;SDS011;4248;48.196;10.924;2023-02-25T06:41:23;12.07;;;7.33;;
8421;SDS011;4248;48.196;10.924;2023-02-25T06:43:49;12.93;;;6.80;;
8421;SDS011;4248;48.196;10.924;2023-02-25T06:46:16;13.83;;;7.23;;
8421;SDS011;4248;48.196;10.924;2023-02-25T06:48:43;11.90;;;6.43;;
8421;SDS011;4248;48.196;10.924;2023-02-25T06:51:09;10.60;;;6.37;;
8421;SDS011;4248;48.196;10.924;2023-02-25T06:53:37;9.77;;;5.90;;
8421;SDS011;4248;48.196;10.924;2023-02-25T06:56:03;10.90;;;6.83;;
8421;SDS011;4248;48.196;10.924;2023-02-25T06:58:30;16.50;;;6.57;;
8421;SDS011;4248;48.196;10.924;2023-02-25T07:00:56;10.03;;;6.53;;
8421;SDS011;4248;48.196;10.924;2023-02-25T07:03:22;11.83;;;7.10;;
8421;SDS011;4248;48.196;10.924;2023-02-25T07:05:48;10.87;;;6.57;;
8421;SDS011;4248;48.196;10.924;2023-02-25T07:08:13;12.53;;;6.17;;
8421;SDS011;4248;48.196;10.924;2023-02-25T07:10:39;14.70;;;6.30;;
8421;SDS011;4248;48.196;10.924;2023-02-25T07:13:06;12.77;;;6.80;;
8421;SDS011;4248;48.196;10.924;2023-02-25T07:15:32;10.17;;;5.90;;
8421;SDS011;4248;48.196;10.924;2023-02-25T07:17:58;9.97;;;6.30;;
8421;SDS011;4248;48.196;10.924;2023-02-25T07:20:24;12.53;;;7.23;;
8421;SDS011;4248;48.196;10.924;2023-02-25T07:22:49;9.97;;;5.93;;
8421;SDS011;4248;48.196;10.924;2023-02-25T07:25:15;13.50;;;6.13;;
8421;SDS011;4248;48.196;10.924;2023-02-25T07:27:41;9.47;;;6.23;;
8421;SDS011;4248;48.196;10.924;2023-02-25T07:30:07;11.13;;;6.30;;
8421;SDS011;4248;48.196;10.924;2023-02-25T07:32:37;11.10;;;6.10;;
8421;SDS011;4248;48.196;10.924;2023-02-25T07:35:07;13.60;;;6.87;;
8421;SDS011;4248;48.196;10.924;2023-02-25T07:37:33;16.47;;;5.57;;
8421;SDS011;4248;48.196;10.924;2023-02-25T07:39:59;11.90;;;4.90;;
8421;SDS011;4248;48.196;10.924;2023-02-25T07:42:27;9.20;;;4.60;;
8421;SDS011;4248;48.196;10.924;2023-02-25T07:44:53;7.60;;;4.43;;
8421;SDS011;4248;48.196;10.924;2023-02-25T07:47:19;9.30;;;4.00;;
8421;SDS011;4248;48.196;10.924;2023-02-25T07:49:45;6.93;;;3.40;;
8421;SDS011;4248;48.196;10.924;2023-02-25T07:52:11;9.53;;;4.57;;
8421;SDS011;4248;48.196;10.924;2023-02-25T07:54:36;15.33;;;5.10;;
8421;SDS011;4248;48.196;10.924;2023-02-25T07:57:02;10.03;;;5.30;;
8421;SDS011;4248;48.196;10.924;2023-02-25T07:59:29;8.00;;;4.27;;
8421;SDS011;4248;48.196;10.924;2023-02-25T08:01:56;9.55;;;3.90;;
8421;SDS011;4248;48.196;10.924;2023-02-25T08:04:22;10.83;;;3.77;;
8421;SDS011;4248;48.196;10.924;2023-02-25T08:06:48;5.77;;;3.23;;
8421;SDS011;4248;48.196;10.924;2023-02-25T08:09:15;8.13;;;3.80;;
8421;SDS011;4248;48.196;10.924;2023-02-25T08:11:42;7.43;;;3.23;;
8421;SDS011;4248;48.196;10.924;2023-02-25T08:14:08;4.67;;;3.00;;
8421;SDS011;4248;48.196;10.924;2023-02-25T08:16:36;5.10;;;3.07;;
8421;SDS011;4248;48.196;10.924;2023-02-25T08:19:03;3.33;;;2.20;;
8421;SDS011;4248;48.196;10.924;2023-02-25T08:21:29;6.93;;;2.77;;
8421;SDS011;4248;48.196;10.924;2023-02-25T08:23:56;6.20;;;2.70;;
8421;SDS011;4248;48.196;10.924;2023-02-25T08:26:22;5.20;;;2.53;;
8421;SDS011;4248;48.196;10.924;2023-02-25T08:28:49;4.57;;;2.57;;
8421;SDS011;4248;48.196;10.924;2023-02-25T08:31:15;3.57;;;2.03;;
8421;SDS011;4248;48.196;10.924;2023-02-25T08:33:42;14.30;;;2.27;;
8421;SDS011;4248;48.196;10.924;2023-02-25T08:36:17;5.67;;;2.60;;
8421;SDS011;4248;48.196;10.924;2023-02-25T08:38:48;7.80;;;2.73;;
8421;SDS011;4248;48.196;10.924;2023-02-25T08:41:16;5.60;;;2.57;;
8421;SDS011;4248;48.196;10.924;2023-02-25T08:43:42;10.60;;;2.30;;
8421;SDS011;4248;48.196;10.924;2023-02-25T08:46:08;5.10;;;1.93;;
8421;SDS011;4248;48.196;10.924;2023-02-25T08:48:34;6.50;;;2.17;;
8421;SDS011;4248;48.196;10.924;2023-02-25T08:51:01;7.70;;;2.10;;
8421;SDS011;4248;48.196;10.924;2023-02-25T08:53:28;8.07;;;3.10;;
8421;SDS011;4248;48.196;10.924;2023-02-25T08:55:53;8.10;;;2.90;;
8421;SDS011;4248;48.196;10.924;2023-02-25T08:58:19;4.77;;;2.47;;
8421;SDS011;4248;48.196;10.924;2023-02-25T09:00:44;7.60;;;2.00;;
8421;SDS011;4248;48.196;10.924;2023-02-25T09:03:13;6.93;;;2.07;;
8421;SDS011;4248;48.196;10.924;2023-02-25T09:05:39;7.80;;;2.23;;
8421;SDS011;4248;48.196;10.924;2023-02-25T09:08:05;6.70;;;2.40;;
8421;SDS011;4248;48.196;10.924;2023-02-25T09:10:30;4.30;;;1.67;;
8421;SDS011;4248;48.196;10.924;2023-02-25T09:12:58;12.90;;;2.30;;
8421;SDS011;4248;48.196;10.924;2023-02-25T09:15:23;5.33;;;1.60;;
8421;SDS011;4248;48.196;10.924;2023-02-25T09:17:49;7.77;;;1.97;;
8421;SDS011;4248;48.196;10.924;2023-02-25T09:20:17;3.57;;;1.97;;
8421;SDS011;4248;48.196;10.924;2023-02-25T09:22:42;3.50;;;1.77;;
8421;SDS011;4248;48.196;10.924;2023-02-25T09:25:08;6.57;;;1.87;;
8421;SDS011;4248;48.196;10.924;2023-02-25T09:27:34;4.33;;;1.40;;
8421;SDS011;4248;48.196;10.924;2023-02-25T09:30:00;4.53;;;1.70;;
8421;SDS011;4248;48.196;10.924;2023-02-25T09:32:26;6.87;;;1.70;;
8421;SDS011;4248;48.196;10.924;2023-02-25T09:34:51;8.37;;;1.77;;
8421;SDS011;4248;48.196;10.924;2023-02-25T09:37:17;5.50;;;1.97;;
8421;SDS011;4248;48.196;10.924;2023-02-25T09:39:43;5.10;;;2.00;;
8421;SDS011;4248;48.196;10.924;2023-02-25T09:42:15;5.87;;;2.03;;
8421;SDS011;4248;48.196;10.924;2023-02-25T09:44:49;13.80;;;6.00;;
8421;SDS011;4248;48.196;10.924;2023-02-25T09:47:25;24.87;;;10.93;;
8421;SDS011;4248;48.196;10.924;2023-02-25T09:52:39;8.60;;;3.03;;
8421;SDS011;4248;48.196;10.924;2023-02-25T09:55:19;17.13;;;2.63;;
8421;SDS011;4248;48.196;10.924;2023-02-25T10:00:48;6.80;;;1.73;;
8421;SDS011;4248;48.196;10.924;2023-02-25T10:06:26;12.30;;;3.53;;
8421;SDS011;4248;48.196;10.924;2023-02-25T10:14:29;2.17;;;1.10;;
8421;SDS011;4248;48.196;10.924;2023-02-25T10:17:15;5.47;;;1.50;;
8421;SDS011;4248;48.196;10.924;2023-02-25T10:28:31;5.53;;;1.50;;
8421;SDS011;4248;48.196;10.924;2023-02-25T10:31:01;7.80;;;2.30;;
8421;SDS011;4248;48.196;10.924;2023-02-25T10:33:34;2.87;;;1.33;;
8421;SDS011;4248;48.196;10.924;2023-02-25T10:38:30;3.73;;;1.27;;
8421;SDS011;4248;48.196;10.924;2023-02-25T10:40:56;3.47;;;1.00;;
8421;SDS011;4248;48.196;10.924;2023-02-25T10:43:23;3.00;;;1.20;;
8421;SDS011;4248;48.196;10.924;2023-02-25T10:45:59;5.60;;;1.20;;
8421;SDS011;4248;48.196;10.924;2023-02-25T10:48:28;6.27;;;1.17;;
8421;SDS011;4248;48.196;10.924;2023-02-25T10:51:06;2.33;;;1.40;;
8421;SDS011;4248;48.196;10.924;2023-02-25T10:53:37;5.63;;;1.53;;
8421;SDS011;4248;48.196;10.924;2023-02-25T10:56:04;4.60;;;1.40;;
8421;SDS011;4248;48.196;10.924;2023-02-25T10:58:43;8.13;;;1.20;;
8421;SDS011;4248;48.196;10.924;2023-02-25T11:04:22;1.60;;;1.00;;
8421;SDS011;4248;48.196;10.924;2023-02-25T11:06:33;2.70;;;1.10;;
8421;SDS011;4248;48.196;10.924;2023-02-25T11:09:05;4.80;;;1.20;;
8421;SDS011;4248;48.196;10.924;2023-02-25T11:14:41;5.20;;;1.30;;
8421;SDS011;4248;48.196;10.924;2023-02-25T11:19:40;2.80;;;1.17;;
8421;SDS011;4248;48.196;10.924;2023-02-25T11:22:09;5.83;;;1.20;;
8421;SDS011;4248;48.196;10.924;2023-02-25T11:24:41;2.93;;;1.20;;
8421;SDS011;4248;48.196;10.924;2023-02-25T11:27:08;8.40;;;2.40;;
8421;SDS011;4248;48.196;10.924;2023-02-25T11:29:50;3.93;;;1.30;;
8421;SDS011;4248;48.196;10.924;2023-02-25T11:32:16;5.80;;;1.67;;
8421;SDS011;4248;48.196;10.924;2023-02-25T11:34:55;4.87;;;1.67;;
8421;SDS011;4248;48.196;10.924;2023-02-25T11:40:00;6.10;;;1.50;;
8421;SDS011;4248;48.196;10.924;2023-02-25T11:42:28;6.43;;;1.30;;
8421;SDS011;4248;48.196;10.924;2023-02-25T11:44:59;3.37;;;1.13;;
8421;SDS011;4248;48.196;10.924;2023-02-25T11:47:28;2.90;;;1.13;;
8421;SDS011;4248;48.196;10.924;2023-02-25T11:52:41;5.10;;;1.40;;
8421;SDS011;4248;48.196;10.924;2023-02-25T11:58:08;2.00;;;1.10;;
8421;SDS011;4248;48.196;10.924;2023-02-25T12:00:45;2.20;;;1.10;;
8421;SDS011;4248;48.196;10.924;2023-02-25T12:17:57;4.27;;;1.10;;
8421;SDS011;4248;48.196;10.924;2023-02-25T12:28:46;4.80;;;1.43;;
8421;SDS011;4248;48.196;10.924;2023-02-25T12:52:46;4.40;;;1.10;;
8421;SDS011;4248;48.196;10.924;2023-02-25T13:12:37;6.43;;;1.67;;
8421;SDS011;4248;48.196;10.924;2023-02-25T13:15:35;4.70;;;1.40;;
8421;SDS011;4248;48.196;10.924;2023-02-25T13:18:42;4.63;;;1.37;;
8421;SDS011;4248;48.196;10.924;2023-02-25T13:24:40;1.57;;;1.10;;
8421;SDS011;4248;48.196;10.924;2023-02-25T13:40:23;2.40;;;1.00;;
8421;SDS011;4248;48.196;10.924;2023-02-25T13:43:19;4.27;;;1.40;;
8421;SDS011;4248;48.196;10.924;2023-02-25T13:46:19;3.67;;;1.30;;
8421;SDS011;4248;48.196;10.924;2023-02-25T13:49:02;2.40;;;0.90;;
8421;SDS011;4248;48.196;10.924;2023-02-25T13:51:40;3.23;;;1.70;;
8421;SDS011;4248;48.196;10.924;2023-02-25T13:57:23;3.97;;;1.47;;
8421;SDS011;4248;48.196;10.924;2023-02-25T14:02:57;2.50;;;0.90;;
8421;SDS011;4248;48.196;10.924;2023-02-25T14:11:28;10.03;;;1.43;;
8421;SDS011;4248;48.196;10.924;2023-02-25T14:14:23;2.80;;;1.23;;
8421;SDS011;4248;48.196;10.924;2023-02-25T14:22:54;2.60;;;1.13;;
8421;SDS011;4248;48.196;10.924;2023-02-25T14:28:30;2.13;;;1.10;;
8421;SDS011;4248;48.196;10.924;2023-02-25T14:37:45;1.40;;;0.90;;
8421;SDS011;4248;48.196;10.924;2023-02-25T14:43:06;1.77;;;1.00;;
8421;SDS011;4248;48.196;10.924;2023-02-25T14:45:21;7.73;;;1.07;;
8421;SDS011;4248;48.196;10.924;2023-02-25T14:56:09;2.40;;;0.80;;
8421;SDS011;4248;48.196;10.924;2023-02-25T14:58:52;3.87;;;1.00;;
8421;SDS011;4248;48.196;10.924;2023-02-25T15:07:39;2.00;;;1.00;;
8421;SDS011;4248;48.196;10.924;2023-02-25T15:12:59;3.97;;;0.83;;
8421;SDS011;4248;48.196;10.924;2023-02-25T15:15:43;1.80;;;0.80;;
8421;SDS011;4248;48.196;10.924;2023-02-25T15:18:18;1.30;;;0.70;;
8421;SDS011;4248;48.196;10.924;2023-02-25T15:21:21;2.20;;;0.80;;
8421;SDS011;4248;48.196;10.924;2023-02-25T15:23:53;3.47;;;0.97;;
8421;SDS011;4248;48.196;10.924;2023-02-25T15:26:23;1.77;;;1.00;;
8421;SDS011;4248;48.196;10.924;2023-02-25T15:28:51;2.17;;;0.90;;
8421;SDS011;4248;48.196;10.924;2023-02-25T15:31:28;1.80;;;0.80;;
8421;SDS011;4248;48.196;10.924;2023-02-25T15:36:47;3.20;;;0.90;;
8421;SDS011;4248;48.196;10.924;2023-02-25T15:39:57;2.13;;;0.83;;
8421;SDS011;4248;48.196;10.924;2023-02-25T15:42:04;4.47;;;1.30;;
8421;SDS011;4248;48.196;10.924;2023-02-25T15:44:32;1.60;;;0.90;;
8421;SDS011;4248;48.196;10.924;2023-02-25T15:47:17;2.13;;;1.20;;
8421;SDS011;4248;48.196;10.924;2023-02-25T15:49:48;4.33;;;1.20;;
8421;SDS011;4248;48.196;10.924;2023-02-25T15:57:56;3.03;;;0.87;;
8421;SDS011;4248;48.196;10.924;2023-02-25T16:03:23;2.47;;;0.90;;
8421;SDS011;4248;48.196;10.924;2023-02-25T16:05:49;5.27;;;1.03;;
8421;SDS011;4248;48.196;10.924;2023-02-25T16:08:17;2.57;;;0.97;;
8421;SDS011;4248;48.196;10.924;2023-02-25T16:10:48;1.33;;;0.97;;
8421;SDS011;4248;48.196;10.924;2023-02-25T16:13:21;2.00;;;1.13;;
8421;SDS011;4248;48.196;10.924;2023-02-25T16:15:52;1.60;;;0.90;;
8421;SDS011;4248;48.196;10.924;2023-02-25T16:18:25;3.57;;;1.00;;
8421;SDS011;4248;48.196;10.924;2023-02-25T16:20:58;3.73;;;1.17;;
8421;SDS011;4248;48.196;10.924;2023-02-25T16:23:30;3.23;;;1.07;;
8421;SDS011;4248;48.196;10.924;2023-02-25T16:41:47;2.60;;;1.10;;
8421;SDS011;4248;48.196;10.924;2023-02-25T16:44:33;1.97;;;1.00;;
8421;SDS011;4248;48.196;10.924;2023-02-25T16:47:02;2.63;;;0.90;;
8421;SDS011;4248;48.196;10.924;2023-02-25T16:49:31;4.67;;;1.10;;
8421;SDS011;4248;48.196;10.924;2023-02-25T16:52:01;1.73;;;1.03;;
8421;SDS011;4248;48.196;10.924;2023-02-25T16:57:00;2.20;;;1.10;;
8421;SDS011;4248;48.196;10.924;2023-02-25T16:59:35;3.20;;;0.97;;
8421;SDS011;4248;48.196;10.924;2023-02-25T17:02:17;2.57;;;1.30;;
8421;SDS011;4248;48.196;10.924;2023-02-25T17:09:59;7.30;;;1.30;;
8421;SDS011;4248;48.196;10.924;2023-02-25T17:12:36;3.53;;;1.10;;
8421;SDS011;4248;48.196;10.924;2023-02-25T17:15:26;7.30;;;1.43;;
8421;SDS011;4248;48.196;10.924;2023-02-25T17:20:31;3.13;;;1.57;;
8421;SDS011;4248;48.196;10.924;2023-02-25T17:22:57;3.00;;;1.40;;
8421;SDS011;4248;48.196;10.924;2023-02-25T17:25:28;3.80;;;1.40;;
8421;SDS011;4248;48.196;10.924;2023-02-25T17:28:01;4.37;;;1.40;;
8421;SDS011;4248;48.196;10.924;2023-02-25T17:30:38;8.33;;;1.47;;
8421;SDS011;4248;48.196;10.924;2023-02-25T17:33:46;3.80;;;1.40;;
8421;SDS011;4248;48.196;10.924;2023-02-25T17:36:12;2.90;;;1.30;;
8421;SDS011;4248;48.196;10.924;2023-02-25T17:38:41;4.00;;;1.10;;
8421;SDS011;4248;48.196;10.924;2023-02-25T17:41:15;2.90;;;1.00;;
8421;SDS011;4248;48.196;10.924;2023-02-25T17:43:42;1.40;;;0.80;;
8421;SDS011;4248;48.196;10.924;2023-02-25T17:48:55;2.80;;;1.10;;
8421;SDS011;4248;48.196;10.924;2023-02-25T17:51:26;1.48;;;0.75;;
8421;SDS011;4248;48.196;10.924;2023-02-25T17:54:12;1.90;;;0.88;;
8421;SDS011;4248;48.196;10.924;2023-02-25T17:56:42;2.60;;;0.90;;
8421;SDS011;4248;48.196;10.924;2023-02-25T18:01:47;1.10;;;0.70;;
8421;SDS011;4248;48.196;10.924;2023-02-25T18:06:49;3.25;;;0.80;;
8421;SDS011;4248;48.196;10.924;2023-02-25T18:09:29;1.70;;;0.77;;
8421;SDS011;4248;48.196;10.924;2023-02-25T18:12:03;1.30;;;0.80;;
8421;SDS011;4248;48.196;10.924;2023-02-25T18:14:33;2.55;;;0.80;;
8421;SDS011;4248;48.196;10.924;2023-02-25T18:17:00;2.67;;;1.20;;
8421;SDS011;4248;48.196;10.924;2023-02-25T18:19:38;2.30;;;1.00;;
8421;SDS011;4248;48.196;10.924;2023-02-25T18:22:06;0.90;;;0.60;;
8421;SDS011;4248;48.196;10.924;2023-02-25T18:24:50;2.78;;;0.73;;
8421;SDS011;4248;48.196;10.924;2023-02-25T18:27:19;1.42;;;0.70;;
8421;SDS011;4248;48.196;10.924;2023-02-25T18:29:54;1.77;;;0.80;;
8421;SDS011;4248;48.196;10.924;2023-02-25T18:32:42;1.35;;;0.70;;
8421;SDS011;4248;48.196;10.924;2023-02-25T18:35:08;1.40;;;0.70;;
8421;SDS011;4248;48.196;10.924;2023-02-25T18:37:33;2.60;;;0.70;;
8421;SDS011;4248;48.196;10.924;2023-02-25T18:39:59;1.53;;;0.63;;
8421;SDS011;4248;48.196;10.924;2023-02-25T18:42:25;1.17;;;0.70;;
8421;SDS011;4248;48.196;10.924;2023-02-25T18:44:51;1.53;;;0.60;;
8421;SDS011;4248;48.196;10.924;2023-02-25T18:47:16;1.20;;;0.90;;
8421;SDS011;4248;48.196;10.924;2023-02-25T18:49:43;1.90;;;0.80;;
8421;SDS011;4248;48.196;10.924;2023-02-25T18:52:27;13.80;;;0.95;;
8421;SDS011;4248;48.196;10.924;2023-02-25T18:54:52;1.90;;;0.90;;
8421;SDS011;4248;48.196;10.924;2023-02-25T18:57:19;1.90;;;0.80;;
8421;SDS011;4248;48.196;10.924;2023-02-25T18:59:50;2.80;;;0.98;;
8421;SDS011;4248;48.196;10.924;2023-02-25T19:02:24;3.95;;;1.27;;
8421;SDS011;4248;48.196;10.924;2023-02-25T19:04:56;4.95;;;1.02;;
8421;SDS011;4248;48.196;10.924;2023-02-25T19:07:23;1.93;;;0.97;;
8421;SDS011;4248;48.196;10.924;2023-02-25T19:09:50;2.23;;;0.90;;
8421;SDS011;4248;48.196;10.924;2023-02-25T19:12:16;1.97;;;0.93;;
8421;SDS011;4248;48.196;10.924;2023-02-25T19:14:43;5.80;;;1.40;;